sensor_id;sensor_type;location;lat;lon;timestamp;P1;P2;P0
76304;PMS7003;65111;50.536;19.204;2023-03-01T00:02:06;23.50;18.50;7.00
76304;PMS7003;65111;50.536;19.204;2023-03-01T00:04:32;23.50;22.50;14.00
76304;PMS7003;65111;50.536;19.204;2023-03-01T00:06:58;30.33;19.33;12.33
76304;PMS7003;65111;50.536;19.204;2023-03-01T00:09:24;38.00;31.00;16.00
76304;PMS7003;65111;50.536;19.204;2023-03-01T00:11:50;49.00;36.00;20.33
76304;PMS7003;65111;50.536;19.204;2023-03-01T00:14:16;33.33;29.33;17.67
76304;PMS7003;65111;50.536;19.204;2023-03-01T00:16:43;27.00;26.00;14.50
76304;PMS7003;65111;50.536;19.204;2023-03-01T00:19:14;32.25;30.50;16.00
76304;PMS7003;65111;50.536;19.204;2023-03-01T00:21:42;38.33;33.00;17.33
76304;PMS7003;65111;50.536;19.204;2023-03-01T00:24:09;30.75;24.75;16.50
76304;PMS7003;65111;50.536;19.204;2023-03-01T00:26:35;25.00;21.67;12.00
76304;PMS7003;65111;50.536;19.204;2023-03-01T00:29:02;29.00;26.50;16.00
76304;PMS7003;65111;50.536;19.204;2023-03-01T00:31:30;35.33;31.67;18.67
76304;PMS7003;65111;50.536;19.204;2023-03-01T00:33:58;42.25;29.00;15.00
76304;PMS7003;65111;50.536;19.204;2023-03-01T00:36:26;30.50;22.50;15.25
76304;PMS7003;65111;50.536;19.204;2023-03-01T00:38:54;30.00;27.00;16.00
76304;PMS7003;65111;50.536;19.204;2023-03-01T00:41:21;21.67;21.00;13.33
76304;PMS7003;65111;50.536;19.204;2023-03-01T00:43:48;26.33;23.33;12.00
76304;PMS7003;65111;50.536;19.204;2023-03-01T00:46:16;28.33;23.33;15.00
76304;PMS7003;65111;50.536;19.204;2023-03-01T00:48:46;24.00;21.33;13.00
76304;PMS7003;65111;50.536;19.204;2023-03-01T00:51:18;24.25;19.25;11.00
76304;PMS7003;65111;50.536;19.204;2023-03-01T00:53:46;24.67;21.00;11.33
76304;PMS7003;65111;50.536;19.204;2023-03-01T00:56:13;17.33;11.33;7.00
76304;PMS7003;65111;50.536;19.204;2023-03-01T00:58:40;20.00;12.50;9.00
76304;PMS7003;65111;50.536;19.204;2023-03-01T01:01:07;18.75;9.00;4.00
76304;PMS7003;65111;50.536;19.204;2023-03-01T01:03:49;6.00;6.00;4.00
76304;PMS7003;65111;50.536;19.204;2023-03-01T01:06:21;18.00;12.50;6.50
76304;PMS7003;65111;50.536;19.204;2023-03-01T01:08:49;11.00;10.25;5.50
76304;PMS7003;65111;50.536;19.204;2023-03-01T01:11:17;10.00;9.00;4.67
76304;PMS7003;65111;50.536;19.204;2023-03-01T01:13:44;16.33;8.33;4.67
76304;PMS7003;65111;50.536;19.204;2023-03-01T01:16:11;9.50;5.00;3.00
76304;PMS7003;65111;50.536;19.204;2023-03-01T01:18:37;11.00;7.00;5.00
76304;PMS7003;65111;50.536;19.204;2023-03-01T01:21:08;11.33;11.33;6.67
76304;PMS7003;65111;50.536;19.204;2023-03-01T01:23:36;6.75;4.50;4.00
76304;PMS7003;65111;50.536;19.204;2023-03-01T01:26:13;12.50;9.00;6.00
76304;PMS7003;65111;50.536;19.204;2023-03-01T01:28:40;12.00;11.33;7.00
76304;PMS7003;65111;50.536;19.204;2023-03-01T01:31:07;9.50;8.00;5.00
76304;PMS7003;65111;50.536;19.204;2023-03-01T01:33:33;13.50;11.00;8.00
76304;PMS7003;65111;50.536;19.204;2023-03-01T01:35:59;3.00;3.00;1.00
76304;PMS7003;65111;50.536;19.204;2023-03-01T01:38:25;10.00;7.00;4.67
76304;PMS7003;65111;50.536;19.204;2023-03-01T01:40:51;7.00;6.75;4.00
76304;PMS7003;65111;50.536;19.204;2023-03-01T01:43:20;9.50;9.50;6.00
76304;PMS7003;65111;50.536;19.204;2023-03-01T01:45:49;9.00;7.00;4.00
76304;PMS7003;65111;50.536;19.204;2023-03-01T01:50:45;12.33;12.00;6.67
76304;PMS7003;65111;50.536;19.204;2023-03-01T01:53:18;8.00;8.00;5.50
76304;PMS7003;65111;50.536;19.204;2023-03-01T01:55:47;15.00;7.50;4.00
76304;PMS7003;65111;50.536;19.204;2023-03-01T01:58:22;21.25;15.50;9.75
76304;PMS7003;65111;50.536;19.204;2023-03-01T02:00:52;20.33;16.00;8.67
76304;PMS7003;65111;50.536;19.204;2023-03-01T02:03:23;15.25;13.25;9.50
76304;PMS7003;65111;50.536;19.204;2023-03-01T02:06:07;13.50;12.25;9.25
76304;PMS7003;65111;50.536;19.204;2023-03-01T02:08:57;20.50;18.50;10.25
76304;PMS7003;65111;50.536;19.204;2023-03-01T02:11:27;17.33;12.67;6.33
76304;PMS7003;65111;50.536;19.204;2023-03-01T02:13:55;17.00;14.67;10.00
76304;PMS7003;65111;50.536;19.204;2023-03-01T02:16:22;16.33;13.00;9.00
76304;PMS7003;65111;50.536;19.204;2023-03-01T02:18:48;9.25;9.25;6.50
76304;PMS7003;65111;50.536;19.204;2023-03-01T02:27:01;9.50;9.50;6.25
76304;PMS7003;65111;50.536;19.204;2023-03-01T02:29:27;11.00;11.00;6.00
76304;PMS7003;65111;50.536;19.204;2023-03-01T02:31:54;6.00;3.00;0.50
76304;PMS7003;65111;50.536;19.204;2023-03-01T02:34:23;12.25;10.50;6.25
76304;PMS7003;65111;50.536;19.204;2023-03-01T02:36:56;8.00;6.00;4.00
76304;PMS7003;65111;50.536;19.204;2023-03-01T02:39:48;9.67;9.00;6.00
76304;PMS7003;65111;50.536;19.204;2023-03-01T02:42:18;11.33;10.00;7.00
76304;PMS7003;65111;50.536;19.204;2023-03-01T02:44:49;9.50;9.50;7.00
76304;PMS7003;65111;50.536;19.204;2023-03-01T02:47:15;8.00;8.00;5.50
76304;PMS7003;65111;50.536;19.204;2023-03-01T02:49:41;5.00;5.00;3.50
76304;PMS7003;65111;50.536;19.204;2023-03-01T02:55:10;9.00;7.00;4.00
76304;PMS7003;65111;50.536;19.204;2023-03-01T02:57:40;10.00;7.00;4.00
76304;PMS7003;65111;50.536;19.204;2023-03-01T03:00:15;9.25;6.00;3.75
76304;PMS7003;65111;50.536;19.204;2023-03-01T03:02:46;17.00;9.50;6.00
76304;PMS7003;65111;50.536;19.204;2023-03-01T03:05:22;8.00;6.00;4.00
76304;PMS7003;65111;50.536;19.204;2023-03-01T03:07:50;17.50;15.00;9.50
76304;PMS7003;65111;50.536;19.204;2023-03-01T03:10:18;19.00;18.00;9.00
76304;PMS7003;65111;50.536;19.204;2023-03-01T03:12:54;13.00;13.00;9.00
76304;PMS7003;65111;50.536;19.204;2023-03-01T03:15:28;9.00;9.00;3.50
76304;PMS7003;65111;50.536;19.204;2023-03-01T03:17:55;17.00;13.33;7.67
76304;PMS7003;65111;50.536;19.204;2023-03-01T03:20:23;11.33;10.67;6.00
76304;PMS7003;65111;50.536;19.204;2023-03-01T03:22:52;12.00;9.50;5.00
76304;PMS7003;65111;50.536;19.204;2023-03-01T03:25:19;12.50;12.50;7.00
76304;PMS7003;65111;50.536;19.204;2023-03-01T03:27:47;12.00;12.00;8.50
76304;PMS7003;65111;50.536;19.204;2023-03-01T03:30:15;16.00;12.67;9.00
76304;PMS7003;65111;50.536;19.204;2023-03-01T03:32:44;12.00;12.00;7.50
76304;PMS7003;65111;50.536;19.204;2023-03-01T03:35:33;9.50;9.50;6.50
76304;PMS7003;65111;50.536;19.204;2023-03-01T03:38:04;7.00;6.33;3.33
76304;PMS7003;65111;50.536;19.204;2023-03-01T03:43:00;8.00;6.50;3.50
76304;PMS7003;65111;50.536;19.204;2023-03-01T03:45:26;9.00;7.00;3.25
76304;PMS7003;65111;50.536;19.204;2023-03-01T03:47:53;10.33;8.33;5.67
76304;PMS7003;65111;50.536;19.204;2023-03-01T03:50:18;7.67;7.00;4.00
76304;PMS7003;65111;50.536;19.204;2023-03-01T03:52:44;15.00;12.67;7.67
76304;PMS7003;65111;50.536;19.204;2023-03-01T03:55:11;9.00;9.00;6.00
76304;PMS7003;65111;50.536;19.204;2023-03-01T03:57:40;10.00;10.00;6.00
76304;PMS7003;65111;50.536;19.204;2023-03-01T04:00:08;12.00;9.25;4.00
76304;PMS7003;65111;50.536;19.204;2023-03-01T04:02:40;9.00;7.00;3.67
76304;PMS7003;65111;50.536;19.204;2023-03-01T04:05:10;6.00;6.00;4.00
76304;PMS7003;65111;50.536;19.204;2023-03-01T04:07:39;6.00;6.00;4.00
76304;PMS7003;65111;50.536;19.204;2023-03-01T04:10:09;19.00;18.00;10.00
76304;PMS7003;65111;50.536;19.204;2023-03-01T04:12:37;13.00;6.75;6.00
76304;PMS7003;65111;50.536;19.204;2023-03-01T04:15:03;10.00;9.00;4.00
76304;PMS7003;65111;50.536;19.204;2023-03-01T04:17:39;13.50;8.50;6.50
76304;PMS7003;65111;50.536;19.204;2023-03-01T04:20:14;5.00;4.00;3.00
76304;PMS7003;65111;50.536;19.204;2023-03-01T04:22:55;7.00;6.00;3.50
76304;PMS7003;65111;50.536;19.204;2023-03-01T04:25:39;8.00;6.00;4.00
76304;PMS7003;65111;50.536;19.204;2023-03-01T04:28:07;8.50;8.50;5.50
76304;PMS7003;65111;50.536;19.204;2023-03-01T04:30:34;9.25;9.00;4.00
76304;PMS7003;65111;50.536;19.204;2023-03-01T04:33:03;6.75;6.75;4.00
76304;PMS7003;65111;50.536;19.204;2023-03-01T04:35:32;4.00;4.00;2.67
76304;PMS7003;65111;50.536;19.204;2023-03-01T04:38:00;13.67;7.67;4.00
76304;PMS7003;65111;50.536;19.204;2023-03-01T04:40:26;13.00;12.00;8.75
76304;PMS7003;65111;50.536;19.204;2023-03-01T04:42:52;11.25;6.25;3.50
76304;PMS7003;65111;50.536;19.204;2023-03-01T04:45:18;9.33;9.33;6.00
76304;PMS7003;65111;50.536;19.204;2023-03-01T04:47:44;6.25;6.00;4.00
76304;PMS7003;65111;50.536;19.204;2023-03-01T04:50:12;7.00;7.00;4.00
76304;PMS7003;65111;50.536;19.204;2023-03-01T04:52:40;4.67;4.67;3.67
76304;PMS7003;65111;50.536;19.204;2023-03-01T04:55:07;7.00;4.00;3.00
76304;PMS7003;65111;50.536;19.204;2023-03-01T04:57:33;1.00;0.00;0.00
76304;PMS7003;65111;50.536;19.204;2023-03-01T04:59:59;8.00;4.50;3.00
76304;PMS7003;65111;50.536;19.204;2023-03-01T05:02:25;4.00;4.00;3.00
76304;PMS7003;65111;50.536;19.204;2023-03-01T05:04:51;6.00;4.00;2.00
76304;PMS7003;65111;50.536;19.204;2023-03-01T05:07:17;5.00;4.00;3.00
76304;PMS7003;65111;50.536;19.204;2023-03-01T05:09:48;6.00;3.25;2.00
76304;PMS7003;65111;50.536;19.204;2023-03-01T05:12:14;4.00;2.00;1.25
76304;PMS7003;65111;50.536;19.204;2023-03-01T05:14:41;1.00;1.00;1.00
76304;PMS7003;65111;50.536;19.204;2023-03-01T05:17:07;3.00;3.00;1.00
76304;PMS7003;65111;50.536;19.204;2023-03-01T05:19:33;1.00;1.00;0.50
76304;PMS7003;65111;50.536;19.204;2023-03-01T05:21:59;1.00;0.50;0.50
76304;PMS7003;65111;50.536;19.204;2023-03-01T05:24:32;3.50;3.50;1.50
76304;PMS7003;65111;50.536;19.204;2023-03-01T05:27:00;3.00;3.00;-1.00
76304;PMS7003;65111;50.536;19.204;2023-03-01T05:29:28;4.00;1.00;1.00
76304;PMS7003;65111;50.536;19.204;2023-03-01T05:31:56;6.00;6.00;3.00
76304;PMS7003;65111;50.536;19.204;2023-03-01T05:34:24;8.25;6.75;4.00
76304;PMS7003;65111;50.536;19.204;2023-03-01T05:36:51;3.75;3.75;1.50
76304;PMS7003;65111;50.536;19.204;2023-03-01T05:39:25;6.50;6.50;3.50
76304;PMS7003;65111;50.536;19.204;2023-03-01T05:41:53;12.00;6.00;4.00
76304;PMS7003;65111;50.536;19.204;2023-03-01T05:44:20;6.00;4.00;2.00
76304;PMS7003;65111;50.536;19.204;2023-03-01T05:46:46;8.33;3.00;2.33
76304;PMS7003;65111;50.536;19.204;2023-03-01T05:49:13;8.50;8.50;6.00
76304;PMS7003;65111;50.536;19.204;2023-03-01T05:51:39;14.33;12.67;7.67
76304;PMS7003;65111;50.536;19.204;2023-03-01T05:54:07;13.50;6.50;1.00
76304;PMS7003;65111;50.536;19.204;2023-03-01T05:56:33;8.50;7.00;6.50
76304;PMS7003;65111;50.536;19.204;2023-03-01T05:59:01;12.33;9.67;6.67
76304;PMS7003;65111;50.536;19.204;2023-03-01T06:01:27;13.25;11.25;7.00
76304;PMS7003;65111;50.536;19.204;2023-03-01T06:03:55;9.00;9.00;6.00
76304;PMS7003;65111;50.536;19.204;2023-03-01T06:06:22;9.33;7.67;4.00
76304;PMS7003;65111;50.536;19.204;2023-03-01T06:08:49;9.25;9.25;6.00
76304;PMS7003;65111;50.536;19.204;2023-03-01T06:11:15;9.50;7.00;6.00
76304;PMS7003;65111;50.536;19.204;2023-03-01T06:13:42;10.50;9.00;6.00
76304;PMS7003;65111;50.536;19.204;2023-03-01T06:16:08;10.00;6.50;4.00
76304;PMS7003;65111;50.536;19.204;2023-03-01T06:18:35;15.67;12.00;9.00
76304;PMS7003;65111;50.536;19.204;2023-03-01T06:21:02;16.50;16.50;9.00
76304;PMS7003;65111;50.536;19.204;2023-03-01T06:23:29;28.00;24.00;15.00
76304;PMS7003;65111;50.536;19.204;2023-03-01T06:25:55;33.00;27.00;12.50
76304;PMS7003;65111;50.536;19.204;2023-03-01T06:28:21;34.33;28.33;16.00
76304;PMS7003;65111;50.536;19.204;2023-03-01T06:30:48;27.50;20.00;12.50
76304;PMS7003;65111;50.536;19.204;2023-03-01T06:33:15;28.00;23.33;16.67
76304;PMS7003;65111;50.536;19.204;2023-03-01T06:35:41;28.50;27.00;15.00
76304;PMS7003;65111;50.536;19.204;2023-03-01T06:38:07;31.00;27.00;16.00
76304;PMS7003;65111;50.536;19.204;2023-03-01T06:40:33;37.67;31.67;19.00
76304;PMS7003;65111;50.536;19.204;2023-03-01T06:43:00;33.00;28.00;16.67
76304;PMS7003;65111;50.536;19.204;2023-03-01T06:45:26;37.50;35.00;21.00
76304;PMS7003;65111;50.536;19.204;2023-03-01T06:47:57;35.00;34.00;20.00
76304;PMS7003;65111;50.536;19.204;2023-03-01T06:50:27;34.33;29.00;19.00
76304;PMS7003;65111;50.536;19.204;2023-03-01T06:52:56;45.33;40.00;23.67
76304;PMS7003;65111;50.536;19.204;2023-03-01T06:55:23;46.00;36.50;21.00
76304;PMS7003;65111;50.536;19.204;2023-03-01T06:57:53;21.00;21.00;15.00
76304;PMS7003;65111;50.536;19.204;2023-03-01T07:00:21;34.50;29.00;17.00
76304;PMS7003;65111;50.536;19.204;2023-03-01T07:02:47;27.00;24.00;13.50
76304;PMS7003;65111;50.536;19.204;2023-03-01T07:05:13;32.00;30.00;20.00
76304;PMS7003;65111;50.536;19.204;2023-03-01T07:07:39;31.50;29.00;15.00
76304;PMS7003;65111;50.536;19.204;2023-03-01T07:10:05;29.67;26.67;18.67
76304;PMS7003;65111;50.536;19.204;2023-03-01T07:12:32;48.00;38.67;23.67
76304;PMS7003;65111;50.536;19.204;2023-03-01T07:14:58;42.00;33.00;21.00
76304;PMS7003;65111;50.536;19.204;2023-03-01T07:17:24;37.67;33.67;22.00
76304;PMS7003;65111;50.536;19.204;2023-03-01T07:19:50;43.50;36.00;24.00
76304;PMS7003;65111;50.536;19.204;2023-03-01T07:22:16;33.00;29.00;19.50
76304;PMS7003;65111;50.536;19.204;2023-03-01T07:24:42;38.00;33.00;22.00
76304;PMS7003;65111;50.536;19.204;2023-03-01T07:27:09;42.67;36.00;21.67
76304;PMS7003;65111;50.536;19.204;2023-03-01T07:29:35;37.00;33.00;20.00
76304;PMS7003;65111;50.536;19.204;2023-03-01T07:32:02;35.00;30.67;20.00
76304;PMS7003;65111;50.536;19.204;2023-03-01T07:34:29;35.00;32.00;20.00
76304;PMS7003;65111;50.536;19.204;2023-03-01T07:36:55;29.00;28.50;19.00
76304;PMS7003;65111;50.536;19.204;2023-03-01T07:39:21;34.00;30.00;21.00
76304;PMS7003;65111;50.536;19.204;2023-03-01T07:41:49;38.50;33.50;20.50
76304;PMS7003;65111;50.536;19.204;2023-03-01T07:44:15;42.33;36.33;22.67
76304;PMS7003;65111;50.536;19.204;2023-03-01T07:46:43;44.50;35.00;21.50
76304;PMS7003;65111;50.536;19.204;2023-03-01T07:49:09;35.00;32.00;20.00
76304;PMS7003;65111;50.536;19.204;2023-03-01T07:51:36;41.50;35.00;23.50
76304;PMS7003;65111;50.536;19.204;2023-03-01T07:54:02;46.00;39.00;24.00
76304;PMS7003;65111;50.536;19.204;2023-03-01T07:56:28;36.00;33.00;22.00
76304;PMS7003;65111;50.536;19.204;2023-03-01T07:58:54;33.00;30.00;20.00
76304;PMS7003;65111;50.536;19.204;2023-03-01T08:01:20;32.00;30.00;19.00
76304;PMS7003;65111;50.536;19.204;2023-03-01T08:03:47;33.00;31.00;20.00
76304;PMS7003;65111;50.536;19.204;2023-03-01T08:06:14;41.00;34.00;20.00
76304;PMS7003;65111;50.536;19.204;2023-03-01T08:08:41;31.00;30.00;19.50
76304;PMS7003;65111;50.536;19.204;2023-03-01T08:11:09;31.00;30.00;20.00
76304;PMS7003;65111;50.536;19.204;2023-03-01T08:13:36;32.00;31.00;20.00
76304;PMS7003;65111;50.536;19.204;2023-03-01T08:16:03;30.50;29.00;20.00
76304;PMS7003;65111;50.536;19.204;2023-03-01T08:18:35;31.00;28.50;19.00
76304;PMS7003;65111;50.536;19.204;2023-03-01T08:21:02;0.00;0.00;0.00
76304;PMS7003;65111;50.536;19.204;2023-03-01T08:23:32;26.00;24.00;17.00
76304;PMS7003;65111;50.536;19.204;2023-03-01T08:26:08;23.00;19.00;13.00
76304;PMS7003;65111;50.536;19.204;2023-03-01T08:28:37;23.00;20.00;15.00
76304;PMS7003;65111;50.536;19.204;2023-03-01T08:31:23;19.00;19.00;12.00
76304;PMS7003;65111;50.536;19.204;2023-03-01T08:33:53;17.00;17.00;10.00
76304;PMS7003;65111;50.536;19.204;2023-03-01T08:36:28;18.00;17.00;12.00
76304;PMS7003;65111;50.536;19.204;2023-03-01T08:38:56;16.50;14.50;10.50
76304;PMS7003;65111;50.536;19.204;2023-03-01T08:41:22;18.00;14.00;11.00
76304;PMS7003;65111;50.536;19.204;2023-03-01T08:43:49;8.00;8.00;6.00
76304;PMS7003;65111;50.536;19.204;2023-03-01T08:46:15;18.00;17.00;10.00
76304;PMS7003;65111;50.536;19.204;2023-03-01T08:48:42;22.00;20.00;13.00
76304;PMS7003;65111;50.536;19.204;2023-03-01T08:51:16;19.00;17.00;12.00
76304;PMS7003;65111;50.536;19.204;2023-03-01T08:53:43;23.50;21.50;14.50
76304;PMS7003;65111;50.536;19.204;2023-03-01T08:56:10;25.00;22.50;15.00
76304;PMS7003;65111;50.536;19.204;2023-03-01T08:58:36;29.00;25.00;14.00
76304;PMS7003;65111;50.536;19.204;2023-03-01T09:01:07;22.00;21.00;14.00
76304;PMS7003;65111;50.536;19.204;2023-03-01T09:03:34;27.00;23.00;14.00
76304;PMS7003;65111;50.536;19.204;2023-03-01T09:06:00;19.00;19.00;13.00
76304;PMS7003;65111;50.536;19.204;2023-03-01T09:08:27;19.00;19.00;14.00
76304;PMS7003;65111;50.536;19.204;2023-03-01T09:10:53;21.00;19.00;13.00
76304;PMS7003;65111;50.536;19.204;2023-03-01T09:13:19;18.50;16.50;12.00
76304;PMS7003;65111;50.536;19.204;2023-03-01T09:15:45;18.00;17.00;11.00
76304;PMS7003;65111;50.536;19.204;2023-03-01T09:18:11;20.00;20.00;14.00
76304;PMS7003;65111;50.536;19.204;2023-03-01T09:20:37;21.00;19.00;13.00
76304;PMS7003;65111;50.536;19.204;2023-03-01T09:23:03;16.67;16.33;12.67
76304;PMS7003;65111;50.536;19.204;2023-03-01T09:25:29;18.00;17.00;12.50
76304;PMS7003;65111;50.536;19.204;2023-03-01T09:27:55;14.50;14.50;11.00
76304;PMS7003;65111;50.536;19.204;2023-03-01T09:30:21;14.00;14.00;12.00
76304;PMS7003;65111;50.536;19.204;2023-03-01T09:32:47;19.50;19.00;13.50
76304;PMS7003;65111;50.536;19.204;2023-03-01T09:35:13;14.67;13.33;10.00
76304;PMS7003;65111;50.536;19.204;2023-03-01T09:37:39;16.00;15.33;11.67
76304;PMS7003;65111;50.536;19.204;2023-03-01T09:40:11;14.50;14.50;9.50
76304;PMS7003;65111;50.536;19.204;2023-03-01T09:45:41;11.50;10.00;7.00
76304;PMS7003;65111;50.536;19.204;2023-03-01T09:48:18;13.00;11.33;8.67
76304;PMS7003;65111;50.536;19.204;2023-03-01T09:50:48;11.00;11.00;8.00
76304;PMS7003;65111;50.536;19.204;2023-03-01T09:53:16;11.00;10.50;8.00
76304;PMS7003;65111;50.536;19.204;2023-03-01T10:01:46;14.00;14.00;10.50
76304;PMS7003;65111;50.536;19.204;2023-03-01T10:04:31;19.00;17.50;13.50
76304;PMS7003;65111;50.536;19.204;2023-03-01T10:09:35;17.00;16.00;13.00
76304;PMS7003;65111;50.536;19.204;2023-03-01T10:12:13;18.00;17.67;13.67
76304;PMS7003;65111;50.536;19.204;2023-03-01T10:14:58;20.00;19.00;14.50
76304;PMS7003;65111;50.536;19.204;2023-03-01T10:17:55;18.00;16.50;11.00
76304;PMS7003;65111;50.536;19.204;2023-03-01T10:23:24;21.00;21.00;13.67
76304;PMS7003;65111;50.536;19.204;2023-03-01T10:25:58;18.00;16.00;12.00
76304;PMS7003;65111;50.536;19.204;2023-03-01T10:31:37;16.50;15.50;10.00
76304;PMS7003;65111;50.536;19.204;2023-03-01T10:36:56;16.50;15.75;12.00
76304;PMS7003;65111;50.536;19.204;2023-03-01T10:39:26;17.00;17.00;12.50
76304;PMS7003;65111;50.536;19.204;2023-03-01T10:41:54;22.00;20.00;14.00
76304;PMS7003;65111;50.536;19.204;2023-03-01T10:47:16;24.00;24.00;16.00
76304;PMS7003;65111;50.536;19.204;2023-03-01T10:49:56;24.00;24.00;17.00
76304;PMS7003;65111;50.536;19.204;2023-03-01T10:52:26;22.00;21.50;16.00
76304;PMS7003;65111;50.536;19.204;2023-03-01T10:54:56;22.50;21.00;15.50
76304;PMS7003;65111;50.536;19.204;2023-03-01T10:57:43;21.50;21.50;16.00
76304;PMS7003;65111;50.536;19.204;2023-03-01T11:05:56;13.00;12.00;9.00
76304;PMS7003;65111;50.536;19.204;2023-03-01T11:08:39;15.00;15.00;10.00
76304;PMS7003;65111;50.536;19.204;2023-03-01T11:11:13;10.00;10.00;7.33
76304;PMS7003;65111;50.536;19.204;2023-03-01T11:13:54;9.33;8.33;7.67
76304;PMS7003;65111;50.536;19.204;2023-03-01T11:16:29;11.00;10.00;7.00
76304;PMS7003;65111;50.536;19.204;2023-03-01T11:19:13;11.50;9.50;7.00
76304;PMS7003;65111;50.536;19.204;2023-03-01T11:21:52;11.00;11.00;7.50
76304;PMS7003;65111;50.536;19.204;2023-03-01T11:24:32;12.00;10.00;8.00
76304;PMS7003;65111;50.536;19.204;2023-03-01T11:27:19;13.00;13.00;10.00
76304;PMS7003;65111;50.536;19.204;2023-03-01T11:30:00;10.33;10.33;7.33
76304;PMS7003;65111;50.536;19.204;2023-03-01T11:32:31;12.67;12.00;8.33
76304;PMS7003;65111;50.536;19.204;2023-03-01T11:35:10;15.00;14.00;12.00
76304;PMS7003;65111;50.536;19.204;2023-03-01T11:52:02;15.00;15.00;11.00
76304;PMS7003;65111;50.536;19.204;2023-03-01T12:06:09;17.00;17.00;11.50
76304;PMS7003;65111;50.536;19.204;2023-03-01T12:23:22;14.33;14.00;9.67
76304;PMS7003;65111;50.536;19.204;2023-03-01T12:37:36;18.00;17.00;13.50
76304;PMS7003;65111;50.536;19.204;2023-03-01T12:43:00;14.50;12.50;8.50
76304;PMS7003;65111;50.536;19.204;2023-03-01T12:50:38;16.00;15.00;11.00
76304;PMS7003;65111;50.536;19.204;2023-03-01T12:53:22;15.50;14.50;10.00
76304;PMS7003;65111;50.536;19.204;2023-03-01T12:56:01;15.00;14.00;10.00
76304;PMS7003;65111;50.536;19.204;2023-03-01T13:17:52;11.50;11.50;8.50
76304;PMS7003;65111;50.536;19.204;2023-03-01T13:20:23;10.33;10.33;7.00
76304;PMS7003;65111;50.536;19.204;2023-03-01T13:23:02;9.67;9.00;6.00
76304;PMS7003;65111;50.536;19.204;2023-03-01T13:33:50;13.00;13.00;7.00
76304;PMS7003;65111;50.536;19.204;2023-03-01T13:36:47;8.50;8.00;5.00
76304;PMS7003;65111;50.536;19.204;2023-03-01T13:41:59;9.50;7.00;4.50
76304;PMS7003;65111;50.536;19.204;2023-03-01T13:44:30;11.00;8.00;7.00
76304;PMS7003;65111;50.536;19.204;2023-03-01T13:49:45;11.00;8.50;5.50
76304;PMS7003;65111;50.536;19.204;2023-03-01T13:52:32;11.50;10.00;7.00
76304;PMS7003;65111;50.536;19.204;2023-03-01T13:55:00;8.50;5.00;2.00
76304;PMS7003;65111;50.536;19.204;2023-03-01T13:57:30;5.00;5.00;4.00
76304;PMS7003;65111;50.536;19.204;2023-03-01T13:59:59;3.00;1.00;0.50
76304;PMS7003;65111;50.536;19.204;2023-03-01T14:02:25;5.00;3.50;3.00
76304;PMS7003;65111;50.536;19.204;2023-03-01T14:04:58;9.00;4.00;4.00
76304;PMS7003;65111;50.536;19.204;2023-03-01T14:07:25;13.50;9.00;6.00
76304;PMS7003;65111;50.536;19.204;2023-03-01T14:10:04;12.00;9.00;4.00
76304;PMS7003;65111;50.536;19.204;2023-03-01T14:12:47;13.00;12.00;9.00
76304;PMS7003;65111;50.536;19.204;2023-03-01T14:20:18;6.00;6.00;4.00
76304;PMS7003;65111;50.536;19.204;2023-03-01T14:22:47;13.00;10.00;7.00
76304;PMS7003;65111;50.536;19.204;2023-03-01T14:30:52;13.00;11.33;7.67
76304;PMS7003;65111;50.536;19.204;2023-03-01T14:36:13;15.00;13.00;9.00
76304;PMS7003;65111;50.536;19.204;2023-03-01T14:38:42;10.00;10.00;7.00
76304;PMS7003;65111;50.536;19.204;2023-03-01T14:41:13;9.50;7.00;6.00
76304;PMS7003;65111;50.536;19.204;2023-03-01T14:43:42;15.00;12.00;6.00
76304;PMS7003;65111;50.536;19.204;2023-03-01T14:46:34;12.00;8.00;4.00
76304;PMS7003;65111;50.536;19.204;2023-03-01T14:51:51;12.00;10.00;7.00
76304;PMS7003;65111;50.536;19.204;2023-03-01T14:54:42;13.00;12.33;7.00
76304;PMS7003;65111;50.536;19.204;2023-03-01T14:57:24;15.00;12.00;9.00
76304;PMS7003;65111;50.536;19.204;2023-03-01T14:59:52;11.00;10.00;7.00
76304;PMS7003;65111;50.536;19.204;2023-03-01T15:02:21;16.00;10.00;6.00
76304;PMS7003;65111;50.536;19.204;2023-03-01T15:04:51;15.50;12.00;8.00
76304;PMS7003;65111;50.536;19.204;2023-03-01T15:07:22;10.00;10.00;5.33
76304;PMS7003;65111;50.536;19.204;2023-03-01T15:09:52;13.00;12.33;7.67
76304;PMS7003;65111;50.536;19.204;2023-03-01T15:14:53;18.50;18.00;13.00
76304;PMS7003;65111;50.536;19.204;2023-03-01T15:20:13;14.00;10.00;6.00
76304;PMS7003;65111;50.536;19.204;2023-03-01T15:22:45;31.00;19.00;13.00
76304;PMS7003;65111;50.536;19.204;2023-03-01T15:25:18;24.00;18.00;9.00
76304;PMS7003;65111;50.536;19.204;2023-03-01T15:27:46;15.50;11.00;9.00
76304;PMS7003;65111;50.536;19.204;2023-03-01T15:30:24;15.00;12.00;8.00
76304;PMS7003;65111;50.536;19.204;2023-03-01T15:35:53;15.33;15.33;9.00
76304;PMS7003;65111;50.536;19.204;2023-03-01T15:38:32;29.00;26.00;20.00
76304;PMS7003;65111;50.536;19.204;2023-03-01T15:41:19;48.00;39.00;24.00
76304;PMS7003;65111;50.536;19.204;2023-03-01T15:43:51;22.00;19.00;14.00
76304;PMS7003;65111;50.536;19.204;2023-03-01T15:46:22;29.00;22.00;16.00
76304;PMS7003;65111;50.536;19.204;2023-03-01T15:48:56;28.00;25.00;16.00
76304;PMS7003;65111;50.536;19.204;2023-03-01T15:51:27;22.67;20.00;8.33
76304;PMS7003;65111;50.536;19.204;2023-03-01T15:53:59;26.33;21.67;14.33
76304;PMS7003;65111;50.536;19.204;2023-03-01T15:56:46;27.67;22.00;16.00
76304;PMS7003;65111;50.536;19.204;2023-03-01T15:59:12;27.00;25.00;12.00
76304;PMS7003;65111;50.536;19.204;2023-03-01T16:01:41;32.67;27.33;16.00
76304;PMS7003;65111;50.536;19.204;2023-03-01T16:04:09;19.50;17.50;11.00
76304;PMS7003;65111;50.536;19.204;2023-03-01T16:06:41;14.33;13.00;9.00
76304;PMS7003;65111;50.536;19.204;2023-03-01T16:09:07;10.00;9.00;7.00
76304;PMS7003;65111;50.536;19.204;2023-03-01T16:11:35;7.00;7.00;6.00
76304;PMS7003;65111;50.536;19.204;2023-03-01T16:14:02;12.50;10.00;6.00
76304;PMS7003;65111;50.536;19.204;2023-03-01T16:16:28;12.67;9.67;5.33
76304;PMS7003;65111;50.536;19.204;2023-03-01T16:18:54;13.00;13.00;6.50
76304;PMS7003;65111;50.536;19.204;2023-03-01T16:21:22;19.00;15.00;9.00
76304;PMS7003;65111;50.536;19.204;2023-03-01T16:23:50;14.67;13.33;8.33
76304;PMS7003;65111;50.536;19.204;2023-03-01T16:26:17;18.50;15.50;8.00
76304;PMS7003;65111;50.536;19.204;2023-03-01T16:28:44;9.00;9.00;4.00
76304;PMS7003;65111;50.536;19.204;2023-03-01T16:31:11;22.00;19.00;10.00
76304;PMS7003;65111;50.536;19.204;2023-03-01T16:33:39;12.67;7.00;6.00
76304;PMS7003;65111;50.536;19.204;2023-03-01T16:36:09;22.00;21.00;12.00
76304;PMS7003;65111;50.536;19.204;2023-03-01T16:38:37;25.75;18.50;9.00
76304;PMS7003;65111;50.536;19.204;2023-03-01T16:41:04;29.00;21.00;14.00
76304;PMS7003;65111;50.536;19.204;2023-03-01T16:43:31;27.00;22.00;18.00